createdAt,value
2019-03-30T00:00:29.802Z,12.73
2019-03-30T00:01:08.504Z,18.20
2019-03-30T00:01:42.233Z,15.75
2019-03-30T00:02:16.362Z,14.55
2019-03-30T00:02:50.109Z,15.03
2019-03-30T00:03:23.789Z,13.75
2019-03-30T00:03:57.617Z,14.00
2019-03-30T00:04:31.378Z,13.83
2019-03-30T00:05:05.286Z,13.55
2019-03-30T00:05:39.059Z,12.88
2019-03-30T00:06:12.853Z,14.23
2019-03-30T00:06:46.649Z,13.88
2019-03-30T00:07:20.350Z,13.30
2019-03-30T00:07:54.145Z,12.68
2019-03-30T00:08:27.842Z,18.70
2019-03-30T00:09:01.602Z,14.58
2019-03-30T00:09:35.364Z,12.18
2019-03-30T00:10:09.159Z,12.68
2019-03-30T00:10:42.933Z,13.20
2019-03-30T00:11:16.633Z,14.40
2019-03-30T00:11:50.409Z,13.62
2019-03-30T00:12:24.174Z,14.20
2019-03-30T00:12:57.854Z,14.00
2019-03-30T00:13:31.669Z,14.45
2019-03-30T00:14:05.427Z,14.98
2019-03-30T00:14:39.320Z,13.80
2019-03-30T00:15:13.085Z,13.15
2019-03-30T00:15:47.193Z,14.63
2019-03-30T00:16:21.009Z,11.93
2019-03-30T00:16:54.782Z,13.20
2019-03-30T00:17:28.457Z,12.58
2019-03-30T00:18:02.298Z,14.05
2019-03-30T00:18:36.359Z,15.10
2019-03-30T00:19:10.410Z,14.15
2019-03-30T00:19:44.392Z,15.08
2019-03-30T00:20:18.470Z,13.40
2019-03-30T00:20:52.661Z,16.85
2019-03-30T00:21:26.681Z,17.23
2019-03-30T00:22:00.719Z,16.02
2019-03-30T00:22:37.783Z,15.25
2019-03-30T00:23:11.691Z,15.28
2019-03-30T00:23:45.372Z,12.95
2019-03-30T00:24:19.335Z,12.73
2019-03-30T00:24:53.115Z,14.58
2019-03-30T00:25:26.891Z,15.58
2019-03-30T00:26:00.682Z,13.62
2019-03-30T00:26:34.364Z,15.90
2019-03-30T00:27:08.128Z,16.17
2019-03-30T00:27:41.881Z,14.30
2019-03-30T00:28:15.645Z,14.90
2019-03-30T00:28:49.459Z,15.70
2019-03-30T00:29:23.135Z,15.25
2019-03-30T00:29:56.888Z,13.25
2019-03-30T00:30:30.582Z,14.50
2019-03-30T00:31:04.459Z,14.93
2019-03-30T00:31:38.219Z,14.00
2019-03-30T00:32:11.985Z,13.22
2019-03-30T00:32:45.662Z,14.50
2019-03-30T00:33:19.370Z,11.57
2019-03-30T00:33:53.137Z,13.78
2019-03-30T00:34:26.890Z,14.65
2019-03-30T00:35:00.585Z,16.55
2019-03-30T00:35:34.538Z,12.75
2019-03-30T00:36:08.233Z,15.72
2019-03-30T00:36:41.982Z,17.00
2019-03-30T00:37:15.657Z,13.43
2019-03-30T00:37:49.453Z,12.75
2019-03-30T00:38:23.211Z,14.43
2019-03-30T00:38:56.881Z,15.13
2019-03-30T00:39:30.658Z,13.15
2019-03-30T00:40:04.694Z,16.73
2019-03-30T00:40:38.452Z,14.05
2019-03-30T00:41:12.322Z,13.22
2019-03-30T00:41:46.250Z,13.58
2019-03-30T00:42:21.239Z,14.20
2019-03-30T00:42:55.067Z,14.13
2019-03-30T00:43:28.873Z,14.98
2019-03-30T00:44:02.630Z,13.98
2019-03-30T00:44:36.321Z,13.78
2019-03-30T00:45:10.086Z,13.65
2019-03-30T00:45:43.778Z,15.25
2019-03-30T00:46:17.566Z,14.60
2019-03-30T00:46:51.323Z,12.88
2019-03-30T00:47:24.999Z,13.05
2019-03-30T00:47:58.770Z,14.75
2019-03-30T00:48:32.523Z,14.85
2019-03-30T00:49:06.219Z,14.28
2019-03-30T00:49:48.839Z,13.95
2019-03-30T00:50:15.371Z,13.80
2019-03-30T00:50:49.038Z,16.85
2019-03-30T00:51:22.719Z,12.47
2019-03-30T00:51:56.510Z,11.33
2019-03-30T00:52:30.294Z,11.55
2019-03-30T00:53:04.041Z,13.25
2019-03-30T00:53:37.811Z,13.30
2019-03-30T00:54:11.473Z,12.23
2019-03-30T00:54:45.236Z,14.13
2019-03-30T00:55:19.021Z,13.60
2019-03-30T00:55:52.790Z,12.95
2019-03-30T00:56:26.471Z,12.60
2019-03-30T00:57:00.222Z,13.55
2019-03-30T00:57:33.902Z,11.57
2019-03-30T00:58:07.883Z,14.45
2019-03-30T00:58:41.726Z,15.28
2019-03-30T00:59:15.758Z,14.80
2019-03-30T00:59:49.553Z,12.80
2019-03-30T01:00:23.390Z,12.18
2019-03-30T01:00:57.227Z,12.40
2019-03-30T01:01:31.126Z,14.93
2019-03-30T01:02:04.905Z,13.70
2019-03-30T01:02:38.638Z,12.07
2019-03-30T01:03:12.404Z,13.00
2019-03-30T01:03:46.161Z,12.65
2019-03-30T01:04:19.924Z,14.33
2019-03-30T01:04:53.619Z,12.47
2019-03-30T01:05:27.675Z,11.30
2019-03-30T01:06:01.429Z,11.63
2019-03-30T01:06:35.208Z,13.13
2019-03-30T01:07:08.969Z,15.58
2019-03-30T01:07:42.646Z,12.05
2019-03-30T01:08:16.403Z,11.70
2019-03-30T01:08:50.074Z,11.18
2019-03-30T01:09:23.755Z,14.47
2019-03-30T01:09:57.521Z,12.63
2019-03-30T01:10:31.199Z,12.95
2019-03-30T01:11:04.954Z,11.53
2019-03-30T01:11:38.720Z,11.97
2019-03-30T01:12:12.481Z,11.63
2019-03-30T01:12:46.232Z,11.10
2019-03-30T01:13:19.989Z,14.75
2019-03-30T01:13:53.754Z,13.30
2019-03-30T01:14:27.450Z,12.63
2019-03-30T01:15:01.245Z,11.90
2019-03-30T01:15:35.023Z,12.80
2019-03-30T01:16:08.772Z,12.33
2019-03-30T01:16:43.281Z,14.53
2019-03-30T01:17:17.050Z,11.20
2019-03-30T01:17:50.809Z,12.40
2019-03-30T01:18:24.493Z,11.05
2019-03-30T01:18:58.265Z,13.45
2019-03-30T01:19:32.182Z,14.43
2019-03-30T01:20:06.363Z,14.03
2019-03-30T01:20:40.117Z,14.33
2019-03-30T01:21:13.941Z,15.00
2019-03-30T01:21:47.701Z,11.18
2019-03-30T01:22:21.457Z,12.55
2019-03-30T01:22:55.318Z,12.50
2019-03-30T01:23:29.079Z,12.45
2019-03-30T01:24:02.831Z,12.13
2019-03-30T01:24:36.584Z,11.40
2019-03-30T01:25:10.630Z,12.50
2019-03-30T01:25:44.458Z,12.60
2019-03-30T01:26:18.145Z,13.83
2019-03-30T01:26:51.936Z,13.00
2019-03-30T01:27:25.615Z,12.58
2019-03-30T01:27:59.353Z,13.22
2019-03-30T01:28:33.204Z,15.25
2019-03-30T01:29:07.025Z,12.13
2019-03-30T01:29:40.742Z,12.75
2019-03-30T01:30:22.952Z,13.25
2019-03-30T01:30:50.543Z,12.20
2019-03-30T01:31:24.318Z,12.37
2019-03-30T01:31:58.095Z,14.87
2019-03-30T01:32:34.908Z,12.70
2019-03-30T01:33:07.335Z,12.28
2019-03-30T01:33:41.172Z,12.00
2019-03-30T01:34:14.935Z,12.18
2019-03-30T01:34:48.689Z,12.90
2019-03-30T01:35:22.457Z,15.60
2019-03-30T01:35:56.445Z,12.65
2019-03-30T01:36:30.200Z,12.50
2019-03-30T01:37:03.976Z,15.28
2019-03-30T01:37:37.736Z,14.95
2019-03-30T01:38:11.441Z,13.25
2019-03-30T01:38:45.123Z,12.65
2019-03-30T01:39:18.886Z,13.60
2019-03-30T01:39:52.570Z,11.55
2019-03-30T01:40:26.241Z,13.58
2019-03-30T01:40:59.916Z,13.13
2019-03-30T01:41:33.597Z,16.20
2019-03-30T01:42:08.042Z,12.28
2019-03-30T01:42:41.793Z,11.28
2019-03-30T01:43:15.761Z,12.88
2019-03-30T01:43:49.517Z,13.55
2019-03-30T01:44:23.201Z,10.60
2019-03-30T01:44:57.033Z,13.22
2019-03-30T01:45:30.780Z,12.85
2019-03-30T01:46:04.732Z,12.90
2019-03-30T01:46:38.402Z,11.03
2019-03-30T01:47:12.181Z,11.83
2019-03-30T01:47:45.867Z,15.18
2019-03-30T01:48:19.625Z,12.88
2019-03-30T01:48:53.374Z,11.63
2019-03-30T01:49:27.133Z,12.60
2019-03-30T01:50:00.880Z,12.40
2019-03-30T01:50:34.646Z,11.65
2019-03-30T01:51:08.401Z,14.00
2019-03-30T01:51:42.076Z,12.20
2019-03-30T01:52:16.041Z,13.28
2019-03-30T01:52:49.797Z,12.18
2019-03-30T01:53:23.555Z,14.63
2019-03-30T01:53:57.226Z,10.82
2019-03-30T01:54:30.993Z,12.70
2019-03-30T01:55:04.910Z,12.23
2019-03-30T01:55:38.664Z,16.15
2019-03-30T01:56:12.426Z,12.88
2019-03-30T01:56:46.091Z,13.03
2019-03-30T01:57:19.878Z,11.97
2019-03-30T01:57:54.445Z,11.45
2019-03-30T01:58:28.145Z,12.30
2019-03-30T01:59:03.093Z,13.40
2019-03-30T01:59:36.802Z,13.75
2019-03-30T02:00:11.816Z,12.63
2019-03-30T02:00:45.559Z,12.28
2019-03-30T02:01:19.241Z,14.10
2019-03-30T02:01:52.914Z,12.53
2019-03-30T02:02:26.686Z,18.40
2019-03-30T02:03:00.471Z,11.63
2019-03-30T02:03:34.228Z,13.78
2019-03-30T02:04:07.932Z,12.90
2019-03-30T02:04:41.594Z,13.20
2019-03-30T02:05:15.351Z,11.60
2019-03-30T02:05:49.098Z,11.63
2019-03-30T02:06:22.841Z,13.10
2019-03-30T02:06:56.502Z,11.75
2019-03-30T02:07:30.286Z,13.35
2019-03-30T02:08:04.050Z,14.03
2019-03-30T02:08:37.800Z,12.30
2019-03-30T02:09:11.578Z,15.98
2019-03-30T02:09:45.327Z,16.00
2019-03-30T02:10:33.652Z,12.30
2019-03-30T02:11:07.401Z,12.75
2019-03-30T02:11:41.158Z,12.00
2019-03-30T02:12:14.832Z,15.28
2019-03-30T02:12:48.609Z,10.68
2019-03-30T02:13:22.290Z,13.32
2019-03-30T02:13:56.057Z,14.18
2019-03-30T02:14:29.832Z,12.80
2019-03-30T02:15:04.031Z,13.05
2019-03-30T02:15:38.075Z,11.63
2019-03-30T02:16:11.775Z,13.53
2019-03-30T02:16:45.447Z,13.53
2019-03-30T02:17:20.315Z,13.00
2019-03-30T02:17:54.278Z,10.88
2019-03-30T02:18:28.085Z,16.00
2019-03-30T02:19:01.834Z,11.38
2019-03-30T02:19:35.597Z,14.98
2019-03-30T02:20:10.814Z,14.30
2019-03-30T02:20:46.042Z,13.35
2019-03-30T02:21:19.910Z,12.50
2019-03-30T02:21:53.707Z,11.63
2019-03-30T02:22:27.507Z,13.53
2019-03-30T02:23:01.213Z,12.40
2019-03-30T02:23:34.903Z,13.03
2019-03-30T02:24:08.573Z,11.75
2019-03-30T02:24:42.255Z,11.68
2019-03-30T02:25:15.931Z,11.73
2019-03-30T02:25:49.674Z,20.17
2019-03-30T02:26:23.443Z,12.40
2019-03-30T02:26:57.163Z,11.25
2019-03-30T02:27:30.952Z,14.73
2019-03-30T02:28:06.906Z,14.87
2019-03-30T02:28:40.437Z,16.82
2019-03-30T02:29:14.208Z,11.70
2019-03-30T02:29:47.979Z,13.53
2019-03-30T02:30:21.725Z,11.53
2019-03-30T02:30:55.500Z,13.25
2019-03-30T02:31:29.256Z,11.43
2019-03-30T02:32:03.079Z,13.08
2019-03-30T02:32:36.830Z,13.08
2019-03-30T02:33:10.701Z,10.90
2019-03-30T02:33:44.371Z,11.35
2019-03-30T02:34:18.187Z,14.40
2019-03-30T02:34:51.944Z,11.63
2019-03-30T02:35:26.595Z,12.63
2019-03-30T02:36:00.554Z,15.28
2019-03-30T02:36:34.230Z,15.53
2019-03-30T02:37:07.941Z,13.25
2019-03-30T02:37:41.718Z,12.75
2019-03-30T02:38:15.707Z,12.05
2019-03-30T02:38:49.458Z,13.75
2019-03-30T02:39:23.286Z,15.60
2019-03-30T02:39:56.956Z,14.83
2019-03-30T02:40:30.652Z,14.43
2019-03-30T02:41:04.481Z,12.63
2019-03-30T02:41:38.250Z,14.10
2019-03-30T02:42:11.995Z,13.95
2019-03-30T02:42:45.669Z,14.35
2019-03-30T02:43:19.450Z,13.32
2019-03-30T02:43:53.234Z,12.00
2019-03-30T02:44:26.990Z,15.20
2019-03-30T02:45:00.751Z,12.95
2019-03-30T02:45:34.418Z,15.23
2019-03-30T02:46:08.163Z,16.10
2019-03-30T02:46:41.915Z,12.30
2019-03-30T02:47:15.591Z,12.68
2019-03-30T02:47:49.335Z,14.13
2019-03-30T02:48:23.027Z,13.38
2019-03-30T02:48:56.711Z,15.28
2019-03-30T02:49:30.477Z,12.78
2019-03-30T02:50:04.604Z,13.60
2019-03-30T02:50:49.487Z,15.72
2019-03-30T02:51:13.785Z,12.33
2019-03-30T02:51:47.559Z,12.50
2019-03-30T02:52:21.366Z,14.47
2019-03-30T02:52:55.050Z,11.90
2019-03-30T02:53:29.283Z,16.23
2019-03-30T02:54:03.024Z,14.50
2019-03-30T02:54:36.782Z,11.63
2019-03-30T02:55:12.749Z,14.20
2019-03-30T02:55:45.935Z,12.40
2019-03-30T02:56:19.700Z,13.28
2019-03-30T02:56:53.449Z,12.35
2019-03-30T02:57:27.122Z,15.08
2019-03-30T02:58:00.872Z,13.03
2019-03-30T02:58:34.767Z,13.85
2019-03-30T02:59:08.465Z,13.93
2019-03-30T02:59:42.140Z,15.15
2019-03-30T03:00:16.701Z,12.43
2019-03-30T03:00:50.540Z,18.02
2019-03-30T03:01:24.199Z,13.95
2019-03-30T03:01:57.962Z,14.25
2019-03-30T03:02:31.645Z,15.03
2019-03-30T03:03:05.773Z,12.55
2019-03-30T03:03:39.549Z,10.63
2019-03-30T03:04:13.308Z,14.53
2019-03-30T03:04:47.076Z,14.28
2019-03-30T03:05:21.063Z,12.98
2019-03-30T03:05:55.017Z,13.60
2019-03-30T03:06:28.669Z,13.30
2019-03-30T03:07:02.442Z,14.60
2019-03-30T03:07:36.202Z,13.90
2019-03-30T03:08:09.921Z,15.08
2019-03-30T03:08:43.690Z,13.58
2019-03-30T03:09:17.378Z,14.07
2019-03-30T03:09:51.134Z,14.40
2019-03-30T03:10:24.885Z,12.55
2019-03-30T03:10:58.576Z,12.58
2019-03-30T03:11:32.388Z,11.45
2019-03-30T03:12:06.068Z,13.22
2019-03-30T03:12:39.748Z,14.05
2019-03-30T03:13:13.436Z,13.32
2019-03-30T03:13:47.201Z,15.55
2019-03-30T03:14:21.098Z,16.25
2019-03-30T03:14:54.862Z,12.98
2019-03-30T03:15:28.612Z,11.83
2019-03-30T03:16:02.362Z,15.20
2019-03-30T03:16:36.220Z,12.10
2019-03-30T03:17:09.891Z,13.30
2019-03-30T03:17:43.570Z,13.35
2019-03-30T03:18:17.321Z,16.20
2019-03-30T03:18:51.092Z,13.20
2019-03-30T03:19:24.862Z,17.27
2019-03-30T03:19:58.695Z,13.83
2019-03-30T03:20:32.454Z,16.40
2019-03-30T03:21:08.726Z,15.70
2019-03-30T03:21:41.621Z,12.35
2019-03-30T03:22:15.471Z,13.38
2019-03-30T03:22:49.237Z,13.93
2019-03-30T03:23:22.998Z,11.40
2019-03-30T03:23:57.407Z,12.93
2019-03-30T03:24:31.118Z,15.55
2019-03-30T03:25:05.226Z,12.63
2019-03-30T03:25:39.338Z,14.28
2019-03-30T03:26:13.101Z,16.77
2019-03-30T03:26:46.871Z,11.85
2019-03-30T03:27:20.720Z,13.72
2019-03-30T03:27:54.478Z,15.50
2019-03-30T03:28:28.193Z,15.70
2019-03-30T03:29:02.097Z,15.90
2019-03-30T03:29:35.908Z,13.10
2019-03-30T03:30:10.062Z,13.83
2019-03-30T03:30:43.832Z,15.85
2019-03-30T03:31:17.526Z,13.70
2019-03-30T03:31:51.208Z,14.68
2019-03-30T03:32:25.200Z,13.45
2019-03-30T03:32:58.998Z,12.78
2019-03-30T03:33:32.671Z,12.98
2019-03-30T03:34:06.511Z,14.10
2019-03-30T03:34:40.221Z,13.20
2019-03-30T03:35:14.015Z,14.43
2019-03-30T03:35:47.765Z,13.03
2019-03-30T03:36:21.438Z,15.15
2019-03-30T03:36:55.193Z,12.40
2019-03-30T03:37:43.151Z,12.80
2019-03-30T03:38:04.406Z,11.20
2019-03-30T03:38:38.151Z,14.55
2019-03-30T03:39:11.982Z,15.40
2019-03-30T03:39:45.658Z,13.40
2019-03-30T03:40:19.433Z,13.05
2019-03-30T03:40:53.187Z,14.13
2019-03-30T03:41:26.926Z,14.10
2019-03-30T03:42:00.689Z,15.08
2019-03-30T03:42:34.711Z,13.20
2019-03-30T03:43:08.613Z,14.28
2019-03-30T03:43:42.513Z,14.03
2019-03-30T03:44:17.201Z,12.50
2019-03-30T03:44:50.952Z,14.25
2019-03-30T03:45:24.725Z,13.90
2019-03-30T03:45:58.452Z,12.37
2019-03-30T03:46:32.285Z,13.70
2019-03-30T03:47:05.951Z,13.85
2019-03-30T03:47:39.717Z,13.45
2019-03-30T03:48:13.403Z,13.10
2019-03-30T03:48:47.392Z,13.50
2019-03-30T03:49:21.075Z,12.43
2019-03-30T03:49:54.748Z,13.20
2019-03-30T03:50:34.496Z,16.50
2019-03-30T03:51:25.114Z,12.30
2019-03-30T03:51:43.936Z,14.68
2019-03-30T03:52:17.678Z,15.15
2019-03-30T03:52:51.529Z,12.47
2019-03-30T03:53:25.294Z,13.45
2019-03-30T03:54:00.198Z,11.97
2019-03-30T03:54:34.015Z,12.28
2019-03-30T03:55:07.932Z,13.03
2019-03-30T03:55:41.875Z,11.45
2019-03-30T03:56:15.731Z,15.08
2019-03-30T03:56:49.483Z,15.20
2019-03-30T03:57:24.130Z,13.22
2019-03-30T03:57:57.881Z,14.35
2019-03-30T03:58:33.718Z,12.60
2019-03-30T03:59:07.992Z,13.72
2019-03-30T03:59:42.140Z,11.97
2019-03-30T04:00:15.900Z,13.10
2019-03-30T04:00:50.957Z,14.38
2019-03-30T04:01:25.567Z,14.07
2019-03-30T04:02:00.023Z,14.75
2019-03-30T04:02:35.650Z,12.20
2019-03-30T04:03:10.202Z,15.55
2019-03-30T04:03:44.256Z,17.10
2019-03-30T04:04:18.982Z,11.73
2019-03-30T04:04:53.893Z,12.63
2019-03-30T04:05:28.439Z,12.07
2019-03-30T04:06:04.346Z,11.45
2019-03-30T04:06:39.090Z,12.85
2019-03-30T04:07:13.127Z,13.53
2019-03-30T04:07:47.780Z,13.72
2019-03-30T04:08:22.993Z,12.95
2019-03-30T04:08:58.221Z,13.22
2019-03-30T04:09:32.575Z,11.95
2019-03-30T04:10:06.421Z,12.65
2019-03-30T04:10:40.776Z,15.45
2019-03-30T04:11:15.257Z,11.75
2019-03-30T04:11:50.466Z,11.15
2019-03-30T04:12:24.229Z,15.00
2019-03-30T04:12:59.437Z,16.80
2019-03-30T04:13:33.205Z,13.75
2019-03-30T04:14:08.520Z,12.07
2019-03-30T04:14:44.969Z,12.10
2019-03-30T04:15:24.857Z,12.25
2019-03-30T04:15:58.634Z,14.15
2019-03-30T04:16:32.403Z,13.85
2019-03-30T04:17:06.147Z,13.75
2019-03-30T04:17:39.897Z,12.07
2019-03-30T04:18:13.840Z,13.58
2019-03-30T04:18:48.378Z,13.43
2019-03-30T04:19:22.527Z,12.98
2019-03-30T04:19:56.234Z,14.33
2019-03-30T04:20:29.906Z,17.23
2019-03-30T04:21:03.676Z,14.68
2019-03-30T04:21:44.092Z,15.50
2019-03-30T04:22:12.865Z,10.90
2019-03-30T04:22:46.668Z,11.68
2019-03-30T04:23:20.421Z,13.78
2019-03-30T04:23:54.571Z,12.70
2019-03-30T04:24:28.450Z,13.90
2019-03-30T04:25:02.811Z,13.40
2019-03-30T04:25:36.914Z,12.30
2019-03-30T04:26:10.590Z,13.00
2019-03-30T04:26:44.403Z,14.45
2019-03-30T04:27:18.110Z,12.28
2019-03-30T04:27:51.880Z,12.73
2019-03-30T04:28:25.630Z,12.70
2019-03-30T04:28:59.306Z,13.28
2019-03-30T04:29:33.050Z,17.40
2019-03-30T04:30:08.114Z,12.45
2019-03-30T04:30:41.891Z,12.20
2019-03-30T04:31:15.626Z,16.82
2019-03-30T04:31:49.393Z,12.10
2019-03-30T04:32:23.078Z,12.03
2019-03-30T04:32:56.843Z,13.75
2019-03-30T04:33:30.691Z,17.30
2019-03-30T04:34:04.457Z,13.00
2019-03-30T04:34:38.182Z,14.87
2019-03-30T04:35:12.455Z,15.00
2019-03-30T04:35:46.123Z,13.28
2019-03-30T04:36:19.794Z,10.45
2019-03-30T04:36:53.462Z,15.25
2019-03-30T04:37:27.133Z,16.25
2019-03-30T04:38:00.802Z,14.28
2019-03-30T04:38:34.556Z,14.18
2019-03-30T04:39:08.307Z,11.50
2019-03-30T04:39:41.970Z,13.95
2019-03-30T04:40:16.202Z,13.08
2019-03-30T04:40:49.881Z,11.65
2019-03-30T04:41:23.641Z,13.50
2019-03-30T04:41:57.329Z,12.33
2019-03-30T04:42:31.008Z,12.88
2019-03-30T04:43:04.745Z,14.33
2019-03-30T04:43:38.418Z,14.90
2019-03-30T04:44:12.164Z,16.73
2019-03-30T04:44:45.933Z,17.40
2019-03-30T04:45:19.638Z,13.25
2019-03-30T04:45:53.326Z,14.00
2019-03-30T04:46:27.254Z,13.10
2019-03-30T04:47:01.011Z,13.70
2019-03-30T04:47:34.678Z,13.80
2019-03-30T04:48:08.466Z,12.15
2019-03-30T04:48:42.298Z,14.35
2019-03-30T04:49:15.973Z,11.97
2019-03-30T04:49:49.722Z,12.40
2019-03-30T04:50:23.495Z,12.43
2019-03-30T04:50:57.251Z,15.15
2019-03-30T04:51:31.007Z,12.47
2019-03-30T04:52:04.684Z,13.95
2019-03-30T04:52:38.350Z,11.50
2019-03-30T04:53:12.033Z,12.85
2019-03-30T04:53:45.776Z,12.78
2019-03-30T04:54:19.634Z,11.93
2019-03-30T04:54:53.315Z,11.83
2019-03-30T04:55:27.285Z,14.90
2019-03-30T04:56:00.954Z,13.10
2019-03-30T04:56:34.715Z,12.80
2019-03-30T04:57:08.385Z,11.35
2019-03-30T04:57:42.137Z,13.18
2019-03-30T04:58:15.802Z,15.28
2019-03-30T04:58:49.470Z,13.65
2019-03-30T04:59:23.141Z,14.43
2019-03-30T04:59:56.892Z,14.15
2019-03-30T05:00:30.861Z,14.33
2019-03-30T05:01:04.604Z,17.02
2019-03-30T05:01:38.274Z,13.65
2019-03-30T05:02:12.025Z,14.18
2019-03-30T05:02:45.777Z,14.63
2019-03-30T05:03:19.450Z,12.60
2019-03-30T05:03:53.127Z,13.65
2019-03-30T05:04:26.798Z,14.90
2019-03-30T05:05:00.562Z,12.88
2019-03-30T05:05:34.874Z,13.13
2019-03-30T05:06:08.618Z,16.50
2019-03-30T05:06:42.294Z,13.43
2019-03-30T05:07:16.082Z,12.95
2019-03-30T05:07:49.742Z,13.13
2019-03-30T05:08:23.491Z,13.90
2019-03-30T05:08:57.227Z,11.40
2019-03-30T05:09:30.903Z,14.28
2019-03-30T05:10:04.819Z,11.40
2019-03-30T05:10:38.500Z,12.70
2019-03-30T05:11:12.238Z,11.18
2019-03-30T05:11:45.908Z,13.18
2019-03-30T05:12:19.661Z,10.23
2019-03-30T05:12:53.334Z,12.05
2019-03-30T05:13:27.090Z,10.55
2019-03-30T05:14:00.774Z,11.57
2019-03-30T05:14:34.761Z,12.28
2019-03-30T05:15:08.718Z,13.38
2019-03-30T05:15:42.414Z,11.40
2019-03-30T05:16:16.078Z,11.12
2019-03-30T05:16:49.745Z,11.33
2019-03-30T05:17:23.420Z,10.13
2019-03-30T05:17:57.169Z,13.40
2019-03-30T05:18:30.910Z,12.73
2019-03-30T05:19:04.585Z,11.50
2019-03-30T05:19:38.436Z,14.33
2019-03-30T05:20:12.384Z,13.32
2019-03-30T05:20:46.166Z,11.40
2019-03-30T05:21:19.916Z,12.13
2019-03-30T05:21:53.710Z,10.95
2019-03-30T05:22:27.374Z,11.35
2019-03-30T05:23:01.118Z,13.53
2019-03-30T05:23:34.864Z,11.63
2019-03-30T05:24:08.537Z,11.48
2019-03-30T05:24:42.277Z,10.60
2019-03-30T05:25:16.225Z,12.82
2019-03-30T05:25:49.978Z,10.68
2019-03-30T05:26:23.653Z,11.93
2019-03-30T05:26:57.405Z,10.25
2019-03-30T05:27:31.147Z,10.63
2019-03-30T05:28:04.890Z,13.78
2019-03-30T05:28:38.557Z,12.15
2019-03-30T05:29:12.313Z,10.80
2019-03-30T05:29:45.979Z,11.48
2019-03-30T05:30:19.721Z,12.33
2019-03-30T05:30:54.299Z,11.00
2019-03-30T05:31:27.966Z,13.03
2019-03-30T05:32:01.743Z,12.45
2019-03-30T05:32:35.477Z,10.35
2019-03-30T05:33:09.239Z,10.53
2019-03-30T05:33:42.898Z,12.93
2019-03-30T05:34:16.726Z,11.00
2019-03-30T05:34:50.389Z,11.70
2019-03-30T05:35:24.314Z,13.80
2019-03-30T05:35:58.081Z,12.50
2019-03-30T05:36:31.846Z,13.40
2019-03-30T05:37:05.523Z,13.38
2019-03-30T05:37:39.332Z,12.40
2019-03-30T05:38:13.199Z,12.18
2019-03-30T05:38:46.862Z,12.07
2019-03-30T05:39:20.535Z,11.68
2019-03-30T05:39:54.273Z,10.58
2019-03-30T05:40:27.951Z,12.13
2019-03-30T05:41:01.643Z,17.25
2019-03-30T05:41:35.320Z,12.43
2019-03-30T05:42:09.084Z,12.33
2019-03-30T05:42:42.844Z,12.25
2019-03-30T05:43:16.619Z,12.40
2019-03-30T05:43:50.280Z,14.98
2019-03-30T05:44:23.953Z,12.78
2019-03-30T05:44:58.093Z,12.63
2019-03-30T05:45:32.057Z,15.13
2019-03-30T05:46:05.814Z,13.78
2019-03-30T05:46:39.522Z,12.45
2019-03-30T05:47:13.258Z,13.53
2019-03-30T05:47:46.917Z,10.63
2019-03-30T05:48:20.666Z,13.25
2019-03-30T05:48:54.333Z,14.10
2019-03-30T05:49:28.000Z,12.10
2019-03-30T05:50:01.670Z,13.88
2019-03-30T05:50:35.337Z,13.98
2019-03-30T05:51:09.106Z,11.45
2019-03-30T05:51:42.770Z,11.78
2019-03-30T05:52:26.311Z,10.30
2019-03-30T05:52:51.902Z,12.47
2019-03-30T05:53:25.677Z,12.10
2019-03-30T05:53:59.390Z,14.23
2019-03-30T05:54:33.144Z,13.85
2019-03-30T05:55:07.097Z,14.40
2019-03-30T05:55:41.041Z,11.65
2019-03-30T05:56:14.805Z,11.88
2019-03-30T05:56:48.486Z,12.25
2019-03-30T05:57:22.246Z,15.00
2019-03-30T05:57:56.006Z,12.43
2019-03-30T05:58:29.705Z,13.10
2019-03-30T05:59:03.374Z,13.00
2019-03-30T05:59:37.062Z,14.65
2019-03-30T06:00:12.689Z,14.35
2019-03-30T06:00:46.357Z,11.90
2019-03-30T06:01:21.226Z,14.90
2019-03-30T06:01:54.978Z,13.28
2019-03-30T06:02:28.738Z,11.45
2019-03-30T06:03:02.491Z,12.53
2019-03-30T06:03:36.230Z,13.32
2019-03-30T06:04:09.985Z,12.18
2019-03-30T06:04:43.666Z,13.25
2019-03-30T06:05:17.349Z,11.50
2019-03-30T06:05:51.018Z,13.32
2019-03-30T06:06:24.787Z,16.02
2019-03-30T06:06:58.549Z,13.28
2019-03-30T06:07:32.225Z,13.35
2019-03-30T06:08:06.590Z,12.93
2019-03-30T06:08:40.481Z,12.40
2019-03-30T06:09:14.157Z,12.82
2019-03-30T06:09:47.830Z,13.88
2019-03-30T06:10:21.507Z,16.82
2019-03-30T06:10:55.259Z,12.98
2019-03-30T06:11:29.029Z,13.43
2019-03-30T06:12:02.794Z,14.00
2019-03-30T06:12:36.461Z,12.13
2019-03-30T06:13:10.154Z,10.68
2019-03-30T06:13:43.891Z,11.43
2019-03-30T06:14:17.546Z,12.35
2019-03-30T06:14:51.217Z,14.00
2019-03-30T06:15:24.969Z,12.82
2019-03-30T06:15:58.736Z,12.05
2019-03-30T06:16:32.426Z,14.20
2019-03-30T06:17:06.095Z,12.63
2019-03-30T06:17:39.842Z,13.25
2019-03-30T06:18:13.516Z,12.03
2019-03-30T06:18:47.270Z,11.85
2019-03-30T06:19:21.015Z,10.90
2019-03-30T06:19:54.777Z,10.50
2019-03-30T06:20:28.526Z,16.17
2019-03-30T06:21:02.277Z,13.80
2019-03-30T06:21:36.038Z,11.73
2019-03-30T06:22:09.798Z,12.82
2019-03-30T06:22:43.504Z,11.35
2019-03-30T06:23:17.257Z,13.25
2019-03-30T06:23:50.930Z,10.43
2019-03-30T06:24:24.597Z,12.60
2019-03-30T06:24:58.357Z,11.30
2019-03-30T06:25:32.101Z,13.08
2019-03-30T06:26:05.850Z,12.00
2019-03-30T06:26:39.627Z,11.40
2019-03-30T06:27:13.364Z,15.18
2019-03-30T06:27:47.034Z,10.72
2019-03-30T06:28:20.702Z,11.43
2019-03-30T06:28:54.371Z,14.65
2019-03-30T06:29:28.054Z,12.18
2019-03-30T06:30:14.761Z,12.80
2019-03-30T06:30:48.518Z,13.90
2019-03-30T06:31:22.195Z,11.68
2019-03-30T06:31:56.013Z,12.73
2019-03-30T06:32:29.879Z,14.30
2019-03-30T06:33:03.649Z,12.50
2019-03-30T06:33:37.336Z,15.45
2019-03-30T06:34:11.081Z,14.15
2019-03-30T06:34:44.750Z,13.38
2019-03-30T06:35:18.551Z,17.40
2019-03-30T06:35:52.210Z,12.07
2019-03-30T06:36:25.884Z,13.43
2019-03-30T06:37:00.373Z,15.78
2019-03-30T06:37:34.129Z,16.00
2019-03-30T06:38:07.894Z,11.65
2019-03-30T06:38:41.650Z,15.70
2019-03-30T06:39:15.317Z,14.87
2019-03-30T06:39:49.081Z,14.30
2019-03-30T06:40:22.838Z,14.50
2019-03-30T06:40:56.505Z,13.08
2019-03-30T06:41:30.237Z,15.53
2019-03-30T06:42:04.615Z,15.03
2019-03-30T06:42:38.368Z,16.45
2019-03-30T06:43:12.129Z,17.55
2019-03-30T06:43:45.871Z,17.10
2019-03-30T06:44:19.530Z,18.40
2019-03-30T06:44:53.210Z,17.15
2019-03-30T06:45:26.958Z,15.38
2019-03-30T06:46:00.907Z,16.35
2019-03-30T06:46:34.724Z,20.27
2019-03-30T06:47:08.609Z,16.52
2019-03-30T06:47:42.391Z,18.37
2019-03-30T06:48:16.146Z,21.15
2019-03-30T06:48:49.813Z,18.82
2019-03-30T06:49:23.487Z,23.10
2019-03-30T06:49:57.251Z,22.80
2019-03-30T06:50:31.018Z,26.73
2019-03-30T06:51:04.702Z,21.70
2019-03-30T06:51:38.442Z,21.48
2019-03-30T06:52:12.229Z,23.40
2019-03-30T06:52:56.748Z,24.02
2019-03-30T06:53:21.409Z,22.00
2019-03-30T06:53:55.087Z,22.77
2019-03-30T06:54:28.779Z,24.37
2019-03-30T06:55:02.542Z,27.40
2019-03-30T06:55:36.305Z,24.52
2019-03-30T06:56:09.990Z,27.10
2019-03-30T06:56:43.657Z,34.00
2019-03-30T06:57:17.482Z,27.35
2019-03-30T06:57:51.255Z,26.15
2019-03-30T06:58:25.010Z,30.43
2019-03-30T06:58:58.776Z,25.95
2019-03-30T06:59:32.454Z,28.95
2019-03-30T07:00:07.740Z,30.55
2019-03-30T07:00:41.482Z,30.32
2019-03-30T07:01:15.236Z,31.00
2019-03-30T07:01:49.234Z,28.75
2019-03-30T07:02:23.589Z,29.90
2019-03-30T07:02:57.549Z,30.77
2019-03-30T07:03:31.503Z,30.08
2019-03-30T07:04:05.372Z,30.97
2019-03-30T07:04:39.279Z,29.77
2019-03-30T07:05:13.194Z,30.60
2019-03-30T07:05:47.399Z,32.30
2019-03-30T07:06:21.494Z,34.95
2019-03-30T07:06:56.163Z,42.05
2019-03-30T07:07:30.648Z,41.70
2019-03-30T07:08:04.465Z,43.02
2019-03-30T07:08:40.181Z,44.55
2019-03-30T07:09:15.358Z,39.08
2019-03-30T07:09:51.038Z,44.93
2019-03-30T07:10:25.017Z,57.53
2019-03-30T07:10:59.370Z,57.40
2019-03-30T07:11:35.102Z,57.20
2019-03-30T07:12:09.940Z,53.45
2019-03-30T07:12:44.978Z,55.38
2019-03-30T07:13:20.051Z,44.58
2019-03-30T07:13:56.185Z,35.43
2019-03-30T07:14:32.883Z,45.65
2019-03-30T07:15:08.049Z,49.18
2019-03-30T07:15:47.088Z,52.40
2019-03-30T07:16:22.687Z,48.05
2019-03-30T07:17:17.812Z,53.52
2019-03-30T07:17:53.799Z,55.40